Time;durP1;ratioP1;P1;durP2;ratioP2;P2;SDS_P1;SDS_P2;PMS_P1;PMS_P2;Temp;Humidity;BMP_temperature;BMP_pressure;BME280_temperature;BME280_humidity;BME280_pressure;Samples;Min_cycle;Max_cycle;Signal;HPM_P1;HPM_P2
2022/12/23 00:01:35;;;;;;;24.03;12.70;;;;;;;;;;5060693;28;20460;-70
2022/12/23 00:04:08;;;;;;;20.17;12.33;;;;;;;;;;5060030;28;20568;-71
2022/12/23 00:06:38;;;;;;;23.67;12.13;;;;;;;;;;5062637;28;20540;-71
2022/12/23 00:09:09;;;;;;;19.37;11.23;;;;;;;;;;5060497;28;20468;-70
2022/12/23 00:15:04;;;;;;;21.53;11.33;;;;;;;;;;5060424;28;20540;-71
2022/12/23 00:17:20;;;;;;;26.70;11.80;;;;;;;;;;5048637;28;20974;-71
2022/12/23 00:19:48;;;;;;;19.00;11.80;;;;;;;;;;5059349;28;20449;-71
2022/12/23 00:22:16;;;;;;;25.20;12.77;;;;;;;;;;5059789;28;20740;-71
2022/12/23 00:24:45;;;;;;;18.00;12.33;;;;;;;;;;5058976;28;20584;-71
2022/12/23 00:27:15;;;;;;;19.03;11.27;;;;;;;;;;5058626;28;20489;-70
2022/12/23 00:29:43;;;;;;;25.53;11.90;;;;;;;;;;5059977;28;20487;-70
2022/12/23 00:32:11;;;;;;;26.27;12.37;;;;;;;;;;5059911;28;20909;-71
2022/12/23 00:34:38;;;;;;;21.80;11.40;;;;;;;;;;5059835;28;20780;-70
2022/12/23 00:37:06;;;;;;;23.17;12.60;;;;;;;;;;5059495;28;20895;-70
2022/12/23 00:45:15;;;;;;;23.20;10.70;;;;;;;;;;5060300;28;20880;-71
2022/12/23 00:50:33;;;;;;;23.63;11.93;;;;;;;;;;5059343;28;20429;-71
2022/12/23 00:53:04;;;;;;;18.53;10.80;;;;;;;;;;5059967;28;20482;-70
2022/12/23 00:55:34;;;;;;;19.03;11.27;;;;;;;;;;5059423;28;20490;-70
2022/12/23 00:58:03;;;;;;;21.30;12.30;;;;;;;;;;5058434;28;20594;-70
2022/12/23 01:06:00;;;;;;;17.63;11.07;;;;;;;;;;5018659;28;20448;-71
2022/12/23 01:08:32;;;;;;;21.50;12.53;;;;;;;;;;5059438;28;20858;-70
2022/12/23 01:11:03;;;;;;;23.57;11.40;;;;;;;;;;5058477;28;20523;-71
2022/12/23 01:13:33;;;;;;;25.13;12.33;;;;;;;;;;5059252;28;20882;-70
2022/12/23 01:16:01;;;;;;;26.30;12.03;;;;;;;;;;5058075;28;20457;-70
2022/12/23 01:18:29;;;;;;;28.70;12.93;;;;;;;;;;5057905;28;20485;-71
2022/12/23 01:20:56;;;;;;;19.63;10.73;;;;;;;;;;5058566;28;20850;-71
2022/12/23 01:23:24;;;;;;;19.73;11.03;;;;;;;;;;5058908;28;20492;-70
2022/12/23 01:25:57;;;;;;;24.73;11.77;;;;;;;;;;5058706;28;20461;-71
2022/12/23 01:28:28;;;;;;;28.87;13.10;;;;;;;;;;5057025;28;20492;-71
2022/12/23 01:31:07;;;;;;;22.17;12.60;;;;;;;;;;5075712;28;20573;-71
2022/12/23 01:33:43;;;;;;;22.83;11.77;;;;;;;;;;5077227;28;20479;-70
2022/12/23 01:36:15;;;;;;;26.33;13.67;;;;;;;;;;5059348;28;20449;-70
2022/12/23 01:38:43;;;;;;;33.73;13.43;;;;;;;;;;5057832;28;20554;-70
2022/12/23 01:42:42;;;;;;;22.60;13.67;;;;;;;;;;5058148;28;20478;-71
2022/12/23 01:43:58;;;;;;;31.27;13.73;;;;;;;;;;5057079;28;20512;-69
2022/12/23 01:46:27;;;;;;;27.00;14.50;;;;;;;;;;5057878;28;20469;-71
2022/12/23 01:48:55;;;;;;;22.63;12.47;;;;;;;;;;5057268;28;20543;-70
2022/12/23 01:51:26;;;;;;;24.93;13.20;;;;;;;;;;5057830;28;20503;-71
2022/12/23 01:53:56;;;;;;;21.33;11.50;;;;;;;;;;5057742;28;20472;-71
2022/12/23 01:56:25;;;;;;;24.70;12.30;;;;;;;;;;5057819;28;20707;-71
2022/12/23 01:58:54;;;;;;;29.80;12.80;;;;;;;;;;5057257;28;20465;-71
2022/12/23 02:04:13;;;;;;;27.67;11.70;;;;;;;;;;5056656;28;20889;-70
2022/12/23 02:09:27;;;;;;;28.20;12.53;;;;;;;;;;5072113;28;20459;-71
2022/12/23 02:12:13;;;;;;;23.13;12.33;;;;;;;;;;5066683;28;20468;-70
2022/12/23 02:17:35;;;;;;;25.37;14.17;;;;;;;;;;5024548;28;20506;-70
2022/12/23 02:20:23;;;;;;;25.63;14.07;;;;;;;;;;5068654;28;20861;-71
2022/12/23 02:23:07;;;;;;;26.10;12.40;;;;;;;;;;5051363;28;20850;-70
2022/12/23 02:25:59;;;;;;;25.87;13.03;;;;;;;;;;5060069;28;20479;-71
2022/12/23 02:28:41;;;;;;;25.27;12.50;;;;;;;;;;5057535;28;20476;-71
2022/12/23 02:31:16;;;;;;;26.57;13.47;;;;;;;;;;5057716;28;20453;-71
2022/12/23 02:33:48;;;;;;;29.37;13.93;;;;;;;;;;5058204;28;20552;-70
2022/12/23 02:36:35;;;;;;;27.07;13.40;;;;;;;;;;5056805;28;20452;-70
2022/12/23 02:39:05;;;;;;;23.60;12.53;;;;;;;;;;5057605;28;20468;-70
2022/12/23 02:41:37;;;;;;;22.63;11.47;;;;;;;;;;5061468;28;20774;-70
2022/12/23 02:44:09;;;;;;;27.50;13.77;;;;;;;;;;5056880;28;20492;-71
2022/12/23 02:46:44;;;;;;;28.97;15.27;;;;;;;;;;5056688;28;20453;-71
2022/12/23 02:49:16;;;;;;;28.40;14.57;;;;;;;;;;5056971;28;20453;-71
2022/12/23 02:51:47;;;;;;;24.80;12.50;;;;;;;;;;5057272;28;20879;-71
2022/12/23 02:54:18;;;;;;;22.47;13.73;;;;;;;;;;5056637;28;20449;-71
2022/12/23 02:56:49;;;;;;;27.80;13.70;;;;;;;;;;5067673;28;20750;-70
2022/12/23 02:59:22;;;;;;;23.17;12.87;;;;;;;;;;5076552;28;20461;-71
2022/12/23 03:01:55;;;;;;;23.47;13.40;;;;;;;;;;5076129;28;20539;-70
2022/12/23 03:04:23;;;;;;;21.27;11.37;;;;;;;;;;5055716;28;20874;-70
2022/12/23 03:06:52;;;;;;;25.23;14.10;;;;;;;;;;5057483;28;20886;-70
2022/12/23 03:09:27;;;;;;;28.87;13.10;;;;;;;;;;5056322;28;20457;-70
2022/12/23 03:12:04;;;;;;;31.70;14.60;;;;;;;;;;5057099;28;20457;-70
2022/12/23 03:14:52;;;;;;;24.30;12.40;;;;;;;;;;5055977;28;20460;-72
2022/12/23 03:17:31;;;;;;;22.37;12.93;;;;;;;;;;5057082;28;20462;-70
2022/12/23 03:20:02;;;;;;;22.57;13.27;;;;;;;;;;5057336;28;20465;-70
2022/12/23 03:22:34;;;;;;;27.50;13.80;;;;;;;;;;5056745;28;20492;-70
2022/12/23 03:25:04;;;;;;;23.10;12.90;;;;;;;;;;5057477;28;20800;-71
2022/12/23 03:27:34;;;;;;;25.77;12.23;;;;;;;;;;5056960;28;20457;-71
2022/12/23 03:30:04;;;;;;;30.70;13.47;;;;;;;;;;5057214;28;20454;-70
2022/12/23 03:32:36;;;;;;;22.30;12.67;;;;;;;;;;5055883;28;20777;-72
2022/12/23 03:35:05;;;;;;;28.03;12.50;;;;;;;;;;5055268;28;20453;-71
2022/12/23 03:37:37;;;;;;;26.10;13.17;;;;;;;;;;5056548;28;20465;-71
2022/12/23 03:40:16;;;;;;;23.17;12.10;;;;;;;;;;5054988;28;20449;-71
2022/12/23 03:42:46;;;;;;;22.43;10.40;;;;;;;;;;5055257;28;20461;-70
2022/12/23 03:45:17;;;;;;;29.20;12.53;;;;;;;;;;5055988;28;20579;-71
2022/12/23 03:47:50;;;;;;;21.90;13.10;;;;;;;;;;5055896;28;20559;-71
2022/12/23 03:50:22;;;;;;;24.03;12.37;;;;;;;;;;5056234;28;20453;-71
2022/12/23 03:52:52;;;;;;;20.00;11.67;;;;;;;;;;5054416;28;20460;-70
2022/12/23 03:58:25;;;;;;;28.07;13.60;;;;;;;;;;5053756;28;20469;-71
2022/12/23 04:00:57;;;;;;;25.90;13.73;;;;;;;;;;5055417;28;20556;-71
2022/12/23 04:03:35;;;;;;;23.40;13.77;;;;;;;;;;5055382;28;20454;-70
2022/12/23 04:06:13;;;;;;;26.17;13.50;;;;;;;;;;5056264;28;20471;-72
2022/12/23 04:08:46;;;;;;;19.73;11.73;;;;;;;;;;5058959;28;20794;-71
2022/12/23 04:11:13;;;;;;;24.07;12.53;;;;;;;;;;5060098;28;20484;-71
2022/12/23 04:13:47;;;;;;;25.13;12.70;;;;;;;;;;5059091;28;20456;-71
2022/12/23 04:16:19;;;;;;;24.07;10.60;;;;;;;;;;5059202;28;20457;-71
2022/12/23 04:18:53;;;;;;;25.57;13.10;;;;;;;;;;5060043;28;20737;-71
2022/12/23 04:21:25;;;;;;;27.30;12.90;;;;;;;;;;5058909;28;20488;-70
2022/12/23 04:23:56;;;;;;;24.00;12.97;;;;;;;;;;5059521;28;20500;-70
2022/12/23 04:26:25;;;;;;;23.17;11.23;;;;;;;;;;5059325;28;20454;-71
2022/12/23 04:28:56;;;;;;;21.83;11.53;;;;;;;;;;5072583;28;20474;-71
2022/12/23 04:31:30;;;;;;;25.63;12.57;;;;;;;;;;5059138;28;20450;-70
2022/12/23 04:33:59;;;;;;;27.67;15.17;;;;;;;;;;5059366;28;20469;-71
2022/12/23 04:36:35;;;;;;;30.20;12.33;;;;;;;;;;5059008;28;20466;-72
2022/12/23 04:39:06;;;;;;;30.07;11.70;;;;;;;;;;5059130;28;20465;-71
2022/12/23 04:41:43;;;;;;;22.60;11.77;;;;;;;;;;5059463;28;20469;-71
2022/12/23 04:44:10;;;;;;;27.33;13.90;;;;;;;;;;5058451;28;20481;-70
2022/12/23 04:46:38;;;;;;;28.30;14.10;;;;;;;;;;5058811;28;20519;-71
2022/12/23 04:49:18;;;;;;;28.37;11.23;;;;;;;;;;5059304;28;20466;-71
2022/12/23 04:51:50;;;;;;;23.83;11.20;;;;;;;;;;5062481;28;20949;-71
2022/12/23 04:54:21;;;;;;;26.60;13.27;;;;;;;;;;5068663;28;20488;-71
2022/12/23 04:56:56;;;;;;;28.47;12.37;;;;;;;;;;5072820;28;20541;-70
2022/12/23 04:59:23;;;;;;;24.10;13.20;;;;;;;;;;5079001;28;20455;-72
2022/12/23 05:01:51;;;;;;;23.43;11.73;;;;;;;;;;5069290;28;20458;-72
2022/12/23 05:04:27;;;;;;;19.17;9.07;;;;;;;;;;5059118;28;20568;-71
2022/12/23 05:06:59;;;;;;;20.73;11.63;;;;;;;;;;5073016;28;20454;-72
2022/12/23 05:09:31;;;;;;;20.90;10.80;;;;;;;;;;5078919;28;20480;-72
2022/12/23 05:11:58;;;;;;;23.00;11.70;;;;;;;;;;5079059;28;20849;-71
2022/12/23 05:14:26;;;;;;;22.80;10.90;;;;;;;;;;5078437;28;20470;-71
2022/12/23 05:16:57;;;;;;;22.40;10.77;;;;;;;;;;5078755;28;20884;-71
2022/12/23 05:19:32;;;;;;;18.37;9.03;;;;;;;;;;5077875;28;20464;-72
2022/12/23 05:21:59;;;;;;;18.90;9.53;;;;;;;;;;5079232;28;20525;-71
2022/12/23 05:24:28;;;;;;;18.13;10.10;;;;;;;;;;5079166;28;20480;-70
2022/12/23 05:26:56;;;;;;;21.70;10.77;;;;;;;;;;5062332;28;20453;-71
2022/12/23 05:29:24;;;;;;;20.20;9.27;;;;;;;;;;5071662;28;20441;-70
2022/12/23 05:31:51;;;;;;;18.50;9.90;;;;;;;;;;5058763;28;20449;-70
2022/12/23 05:34:20;;;;;;;22.73;9.40;;;;;;;;;;5068120;28;20464;-71
2022/12/23 05:36:52;;;;;;;17.77;9.07;;;;;;;;;;5065844;28;20906;-71
2022/12/23 05:39:20;;;;;;;17.90;9.93;;;;;;;;;;5077451;28;20865;-72
2022/12/23 05:41:48;;;;;;;22.73;11.37;;;;;;;;;;5078551;28;20456;-70
2022/12/23 05:44:26;;;;;;;17.77;8.70;;;;;;;;;;5077523;28;20457;-70
2022/12/23 05:46:59;;;;;;;14.43;8.40;;;;;;;;;;5057699;28;20449;-71
2022/12/23 05:49:31;;;;;;;16.70;9.10;;;;;;;;;;5057367;28;20453;-71
2022/12/23 05:52:08;;;;;;;18.00;9.60;;;;;;;;;;5057523;28;20474;-71
2022/12/23 05:54:43;;;;;;;21.00;11.10;;;;;;;;;;5056651;28;20742;-70
2022/12/23 05:57:11;;;;;;;21.30;10.50;;;;;;;;;;5057972;28;20475;-71
2022/12/23 05:59:45;;;;;;;27.73;10.20;;;;;;;;;;5057276;28;20465;-72
2022/12/23 06:02:17;;;;;;;16.23;7.70;;;;;;;;;;5057047;28;20456;-71
2022/12/23 06:04:47;;;;;;;18.20;8.53;;;;;;;;;;5056663;28;20778;-71
2022/12/23 06:07:20;;;;;;;18.57;9.90;;;;;;;;;;5057721;28;20472;-72
2022/12/23 06:10:16;;;;;;;17.63;9.37;;;;;;;;;;5057482;28;20476;-72
2022/12/23 06:12:46;;;;;;;17.90;9.77;;;;;;;;;;5051335;28;20893;-71
2022/12/23 06:15:16;;;;;;;19.27;10.63;;;;;;;;;;5057827;28;20465;-70
2022/12/23 06:17:44;;;;;;;18.27;9.33;;;;;;;;;;5055805;28;20766;-71
2022/12/23 06:20:22;;;;;;;18.97;8.33;;;;;;;;;;5056158;28;20484;-71
2022/12/23 06:22:52;;;;;;;19.67;10.20;;;;;;;;;;5056706;28;20877;-71
2022/12/23 06:25:19;;;;;;;18.83;9.50;;;;;;;;;;5057013;28;20489;-71
2022/12/23 06:27:47;;;;;;;22.07;10.37;;;;;;;;;;5056662;28;20454;-71
2022/12/23 06:30:14;;;;;;;25.20;9.63;;;;;;;;;;5056596;28;20489;-71
2022/12/23 06:32:43;;;;;;;28.70;13.40;;;;;;;;;;5057158;28;20458;-71
2022/12/23 06:35:11;;;;;;;26.67;12.73;;;;;;;;;;5056765;28;20721;-71
2022/12/23 06:37:38;;;;;;;26.57;14.43;;;;;;;;;;5055477;28;20453;-71
2022/12/23 06:40:08;;;;;;;24.50;10.67;;;;;;;;;;5056804;28;20461;-71
2022/12/23 06:42:39;;;;;;;24.00;11.30;;;;;;;;;;5056231;28;20457;-72
2022/12/23 06:45:07;;;;;;;29.20;12.43;;;;;;;;;;5056592;28;20576;-72
2022/12/23 06:47:34;;;;;;;25.77;10.87;;;;;;;;;;5056055;28;20453;-71
2022/12/23 06:50:02;;;;;;;23.23;11.30;;;;;;;;;;5057267;28;20469;-72
2022/12/23 06:52:31;;;;;;;30.63;15.70;;;;;;;;;;5056448;28;20454;-72
2022/12/23 06:55:00;;;;;;;35.43;13.33;;;;;;;;;;5055067;28;20465;-71
2022/12/23 06:57:29;;;;;;;25.90;12.90;;;;;;;;;;5055616;28;20475;-72
2022/12/23 06:59:56;;;;;;;32.07;14.37;;;;;;;;;;5056308;28;20507;-72
2022/12/23 07:02:27;;;;;;;36.63;14.40;;;;;;;;;;5062819;28;20473;-70
2022/12/23 07:05:01;;;;;;;32.43;14.33;;;;;;;;;;5075682;28;20765;-73
2022/12/23 07:07:32;;;;;;;34.73;12.43;;;;;;;;;;5074695;28;20448;-70
2022/12/23 07:10:01;;;;;;;26.80;11.50;;;;;;;;;;5075306;28;20491;-71
2022/12/23 07:12:32;;;;;;;30.13;12.43;;;;;;;;;;5076386;28;20941;-71
2022/12/23 07:15:03;;;;;;;27.07;12.70;;;;;;;;;;5075093;28;20559;-72
2022/12/23 07:17:31;;;;;;;25.47;12.57;;;;;;;;;;5076125;28;20445;-71
2022/12/23 07:19:58;;;;;;;28.97;13.00;;;;;;;;;;5075847;28;21048;-72
2022/12/23 07:22:26;;;;;;;28.03;12.17;;;;;;;;;;5063116;28;20465;-72
2022/12/23 07:24:54;;;;;;;28.37;11.50;;;;;;;;;;5061162;28;20511;-72
2022/12/23 07:27:23;;;;;;;25.30;11.70;;;;;;;;;;5075385;28;20726;-72
2022/12/23 07:29:52;;;;;;;32.97;13.67;;;;;;;;;;5075995;28;20699;-72
2022/12/23 07:32:20;;;;;;;27.80;11.70;;;;;;;;;;5075157;28;20464;-72
2022/12/23 07:34:47;;;;;;;25.73;11.77;;;;;;;;;;5075482;28;20456;-72
2022/12/23 07:37:15;;;;;;;24.30;11.47;;;;;;;;;;5076830;28;20457;-71
2022/12/23 07:39:42;;;;;;;27.93;12.67;;;;;;;;;;5075965;28;20755;-70
2022/12/23 07:42:10;;;;;;;23.47;11.60;;;;;;;;;;5077170;28;20452;-70
2022/12/23 07:44:40;;;;;;;25.50;11.20;;;;;;;;;;5079915;28;20459;-72
2022/12/23 07:47:12;;;;;;;29.37;12.07;;;;;;;;;;5077419;28;20467;-71
2022/12/23 07:49:43;;;;;;;26.97;10.30;;;;;;;;;;5079898;28;20521;-71
2022/12/23 07:52:11;;;;;;;23.23;10.57;;;;;;;;;;5071200;28;20465;-71
2022/12/23 07:54:39;;;;;;;27.97;12.27;;;;;;;;;;5075259;28;20468;-71
2022/12/23 07:57:07;;;;;;;33.17;12.23;;;;;;;;;;5079141;28;20555;-71
2022/12/23 07:59:34;;;;;;;26.57;10.60;;;;;;;;;;5078278;28;20476;-72
2022/12/23 08:02:05;;;;;;;24.93;11.93;;;;;;;;;;5079241;28;20470;-72
2022/12/23 08:04:34;;;;;;;22.80;10.77;;;;;;;;;;5079527;28;20864;-70
2022/12/23 08:07:01;;;;;;;23.67;11.43;;;;;;;;;;5078244;28;20495;-72
2022/12/23 08:09:39;;;;;;;23.60;11.57;;;;;;;;;;5079026;28;20486;-73
2022/12/23 08:12:09;;;;;;;31.60;10.67;;;;;;;;;;5078633;28;20696;-72
2022/12/23 08:14:36;;;;;;;24.93;9.90;;;;;;;;;;5078455;28;20468;-71
2022/12/23 08:17:04;;;;;;;21.93;11.13;;;;;;;;;;5078547;28;20871;-72
2022/12/23 08:19:34;;;;;;;25.23;11.60;;;;;;;;;;5078297;28;20494;-72
2022/12/23 08:22:03;;;;;;;24.00;9.37;;;;;;;;;;5078102;28;20506;-72
2022/12/23 08:24:31;;;;;;;23.40;9.40;;;;;;;;;;5078896;28;20861;-72
2022/12/23 08:27:01;;;;;;;19.50;9.33;;;;;;;;;;5077513;28;20592;-72
2022/12/23 08:29:28;;;;;;;21.60;8.23;;;;;;;;;;5058418;28;20547;-71
2022/12/23 08:31:56;;;;;;;24.10;11.67;;;;;;;;;;5060267;28;20449;-70
2022/12/23 08:34:24;;;;;;;20.47;9.63;;;;;;;;;;5075654;28;20462;-71
2022/12/23 08:36:51;;;;;;;27.10;11.03;;;;;;;;;;5078508;28;20465;-71
2022/12/23 08:39:21;;;;;;;24.33;9.60;;;;;;;;;;5067163;28;20765;-71
2022/12/23 08:41:50;;;;;;;21.40;8.90;;;;;;;;;;5061188;28;21040;-71
2022/12/23 08:44:25;;;;;;;26.40;9.97;;;;;;;;;;5058855;28;20485;-71
2022/12/23 08:46:54;;;;;;;25.70;10.37;;;;;;;;;;5056702;28;20485;-71
2022/12/23 08:49:25;;;;;;;19.57;8.70;;;;;;;;;;5076705;28;20589;-70
2022/12/23 08:51:53;;;;;;;20.63;8.77;;;;;;;;;;5066786;28;20453;-71
2022/12/23 08:54:23;;;;;;;23.90;10.47;;;;;;;;;;5075930;28;20468;-71
2022/12/23 08:56:54;;;;;;;25.47;9.53;;;;;;;;;;5072448;28;20470;-71
2022/12/23 08:59:22;;;;;;;20.73;11.03;;;;;;;;;;5058424;28;20521;-71
2022/12/23 09:01:50;;;;;;;24.03;10.40;;;;;;;;;;5069777;28;20501;-70
2022/12/23 09:04:18;;;;;;;23.00;11.10;;;;;;;;;;5059722;28;20458;-72
2022/12/23 09:06:49;;;;;;;28.70;12.07;;;;;;;;;;5065603;28;20484;-71
2022/12/23 09:09:16;;;;;;;23.63;9.53;;;;;;;;;;5076274;28;20563;-72
2022/12/23 09:11:46;;;;;;;34.97;12.50;;;;;;;;;;5076524;28;20513;-71
2022/12/23 09:14:13;;;;;;;26.07;10.90;;;;;;;;;;5072608;28;20868;-72
2022/12/23 09:16:47;;;;;;;22.13;12.93;;;;;;;;;;5076564;28;20849;-72
2022/12/23 09:19:17;;;;;;;24.17;10.60;;;;;;;;;;5076728;28;20511;-72
2022/12/23 09:21:44;;;;;;;17.17;9.63;;;;;;;;;;5076657;28;20700;-72
2022/12/23 09:24:15;;;;;;;16.50;8.07;;;;;;;;;;5074945;28;20975;-71
2022/12/23 09:26:42;;;;;;;19.77;9.37;;;;;;;;;;5065287;28;20516;-72
2022/12/23 09:29:11;;;;;;;18.90;8.20;;;;;;;;;;5055794;28;20461;-71
2022/12/23 09:31:39;;;;;;;16.33;7.33;;;;;;;;;;5056558;28;20469;-71
2022/12/23 09:34:09;;;;;;;22.40;10.03;;;;;;;;;;5062336;28;20480;-72
2022/12/23 09:36:37;;;;;;;25.87;10.30;;;;;;;;;;5075709;28;20571;-71
2022/12/23 09:39:05;;;;;;;20.50;9.37;;;;;;;;;;5077440;28;20732;-72
2022/12/23 09:41:50;;;;;;;15.83;8.97;;;;;;;;;;5066212;28;20490;-71
2022/12/23 09:44:48;;;;;;;22.40;8.97;;;;;;;;;;5065918;28;20457;-72
2022/12/23 09:47:19;;;;;;;22.77;8.90;;;;;;;;;;5072511;28;20491;-71
2022/12/23 09:50:04;;;;;;;19.37;8.73;;;;;;;;;;5061599;28;20473;-72
2022/12/23 09:52:41;;;;;;;14.60;7.77;;;;;;;;;;5072479;28;20468;-72
2022/12/23 09:55:11;;;;;;;19.03;9.13;;;;;;;;;;5077532;28;20534;-74
2022/12/23 09:57:43;;;;;;;18.93;8.93;;;;;;;;;;5066489;28;20480;-72
2022/12/23 10:00:14;;;;;;;16.37;7.00;;;;;;;;;;5063480;28;20492;-72
2022/12/23 10:03:02;;;;;;;21.90;13.10;;;;;;;;;;5061380;28;21077;-72
2022/12/23 10:05:34;;;;;;;15.80;8.33;;;;;;;;;;5055572;28;20474;-72
2022/12/23 10:08:04;;;;;;;13.77;7.53;;;;;;;;;;5055875;28;20465;-72
2022/12/23 10:10:35;;;;;;;20.57;7.13;;;;;;;;;;5056618;28;20590;-72
2022/12/23 10:13:09;;;;;;;18.73;8.37;;;;;;;;;;5061105;28;20461;-72
2022/12/23 10:15:42;;;;;;;18.27;9.33;;;;;;;;;;5058841;28;20800;-72
2022/12/23 10:18:18;;;;;;;12.00;7.70;;;;;;;;;;5056807;28;20457;-71
2022/12/23 10:20:56;;;;;;;20.57;9.77;;;;;;;;;;5055728;28;20817;-71
2022/12/23 10:23:29;;;;;;;23.43;8.90;;;;;;;;;;5054855;28;20850;-71
2022/12/23 10:25:57;;;;;;;20.80;10.33;;;;;;;;;;5055527;28;20860;-71
2022/12/23 10:28:25;;;;;;;17.90;9.03;;;;;;;;;;5055306;28;22099;-71
2022/12/23 10:31:09;;;;;;;24.70;10.70;;;;;;;;;;5054159;28;20568;-71
2022/12/23 10:33:41;;;;;;;19.10;9.27;;;;;;;;;;5054777;28;20560;-70
2022/12/23 10:36:14;;;;;;;18.20;7.70;;;;;;;;;;5069903;28;20891;-70
2022/12/23 10:38:48;;;;;;;11.63;7.30;;;;;;;;;;5060429;28;20465;-71
2022/12/23 10:41:22;;;;;;;20.23;9.67;;;;;;;;;;5067671;28;20538;-71
2022/12/23 10:44:11;;;;;;;13.50;8.40;;;;;;;;;;5069423;28;20487;-71
2022/12/23 10:46:56;;;;;;;21.20;8.27;;;;;;;;;;5054451;28;20480;-71
2022/12/23 10:49:31;;;;;;;13.73;7.20;;;;;;;;;;5056603;28;20546;-68
2022/12/23 10:52:01;;;;;;;19.03;7.30;;;;;;;;;;5055558;28;20474;-70
2022/12/23 10:54:35;;;;;;;16.70;7.40;;;;;;;;;;5055654;28;20457;-69
2022/12/23 10:57:03;;;;;;;13.17;7.93;;;;;;;;;;5054528;28;20548;-71
2022/12/23 10:59:33;;;;;;;14.33;7.70;;;;;;;;;;5060542;28;20499;-71
2022/12/23 11:02:14;;;;;;;17.37;9.30;;;;;;;;;;5059933;28;20519;-71
2022/12/23 11:04:47;;;;;;;14.93;7.07;;;;;;;;;;5054372;28;20795;-71
2022/12/23 11:07:35;;;;;;;16.37;7.63;;;;;;;;;;5054573;28;20489;-71
2022/12/23 11:13:29;;;;;;;25.33;13.13;;;;;;;;;;5013913;28;20509;-71
2022/12/23 11:16:13;;;;;;;14.47;8.23;;;;;;;;;;5029976;28;20457;-70
2022/12/23 11:19:04;;;;;;;16.97;7.60;;;;;;;;;;5042628;28;20469;-71
2022/12/23 11:25:25;;;;;;;17.03;7.67;;;;;;;;;;5055127;28;20455;-70
2022/12/23 11:28:35;;;;;;;11.33;5.77;;;;;;;;;;5060834;28;20495;-71
2022/12/23 11:33:53;;;;;;;14.10;8.03;;;;;;;;;;5060530;28;20465;-70
2022/12/23 11:39:32;;;;;;;13.10;6.67;;;;;;;;;;5040356;28;20488;-71
2022/12/23 11:42:18;;;;;;;15.90;7.80;;;;;;;;;;5054266;28;20469;-71
2022/12/23 11:44:50;;;;;;;13.17;7.47;;;;;;;;;;5053691;28;20453;-71
2022/12/23 11:47:40;;;;;;;13.93;6.67;;;;;;;;;;5055429;28;20553;-71
2022/12/23 11:50:35;;;;;;;15.63;6.53;;;;;;;;;;5054005;28;20544;-71
2022/12/23 11:53:21;;;;;;;13.10;7.80;;;;;;;;;;5053212;28;20792;-71
2022/12/23 11:56:24;;;;;;;12.10;8.17;;;;;;;;;;5053876;28;20761;-71
2022/12/23 11:59:04;;;;;;;17.23;7.30;;;;;;;;;;5054468;28;20449;-70
2022/12/23 12:01:38;;;;;;;14.53;7.00;;;;;;;;;;5073580;28;20471;-71
2022/12/23 12:04:11;;;;;;;14.57;8.13;;;;;;;;;;5073137;28;20463;-71
2022/12/23 12:07:03;;;;;;;16.07;8.60;;;;;;;;;;5056914;28;20516;-71
2022/12/23 12:09:42;;;;;;;21.63;9.97;;;;;;;;;;5064647;28;20555;-70
2022/12/23 12:12:20;;;;;;;19.43;8.20;;;;;;;;;;5067012;28;20452;-71
2022/12/23 12:15:07;;;;;;;22.90;10.40;;;;;;;;;;5067204;28;20469;-71
2022/12/23 12:20:33;;;;;;;21.10;9.40;;;;;;;;;;5057157;28;20457;-71
2022/12/23 12:23:06;;;;;;;25.80;10.60;;;;;;;;;;5073119;28;20455;-71
2022/12/23 12:25:52;;;;;;;22.17;11.30;;;;;;;;;;5073505;28;20529;-71
2022/12/23 12:28:28;;;;;;;12.30;6.90;;;;;;;;;;5058197;28;20476;-70
2022/12/23 12:31:07;;;;;;;24.53;11.20;;;;;;;;;;5067065;28;20764;-71
2022/12/23 12:33:48;;;;;;;13.37;8.87;;;;;;;;;;5069280;28;20554;-71
2022/12/23 12:36:23;;;;;;;18.50;9.97;;;;;;;;;;5074422;28;20543;-70
2022/12/23 12:38:53;;;;;;;18.07;10.70;;;;;;;;;;5057955;28;21092;-71
2022/12/23 12:41:32;;;;;;;20.30;12.13;;;;;;;;;;5057617;28;20454;-71
2022/12/23 12:44:04;;;;;;;14.23;7.60;;;;;;;;;;5060524;28;20476;-70
2022/12/23 12:49:59;;;;;;;13.93;7.23;;;;;;;;;;5040797;28;20448;-71
2022/12/23 12:55:19;;;;;;;14.77;9.70;;;;;;;;;;5063946;28;20543;-70
2022/12/23 12:57:53;;;;;;;16.07;8.87;;;;;;;;;;5064191;28;20879;-70
2022/12/23 13:00:41;;;;;;;11.67;7.23;;;;;;;;;;5061815;28;20533;-71
2022/12/23 13:03:21;;;;;;;16.03;8.13;;;;;;;;;;5065184;28;20516;-70
2022/12/23 13:06:06;;;;;;;15.37;7.23;;;;;;;;;;5067619;28;20480;-70
2022/12/23 13:08:50;;;;;;;15.00;7.47;;;;;;;;;;5056374;28;20495;-70
2022/12/23 13:11:21;;;;;;;18.87;9.10;;;;;;;;;;5057955;28;20457;-70
2022/12/23 13:13:54;;;;;;;11.90;7.00;;;;;;;;;;5067602;28;20555;-71
2022/12/23 13:16:31;;;;;;;12.10;6.83;;;;;;;;;;5075922;28;20454;-70
2022/12/23 13:19:09;;;;;;;13.30;7.73;;;;;;;;;;5054664;28;20485;-71
2022/12/23 13:21:55;;;;;;;13.40;7.40;;;;;;;;;;5055026;28;20511;-71
2022/12/23 13:24:32;;;;;;;17.10;9.30;;;;;;;;;;5056449;28;20457;-71
2022/12/23 13:27:21;;;;;;;22.97;8.97;;;;;;;;;;5068613;28;20692;-70
2022/12/23 13:30:05;;;;;;;18.07;10.60;;;;;;;;;;5066548;28;20523;-70
2022/12/23 13:33:06;;;;;;;;;;;;;;;;;;;;;
2022/12/23 13:36:07;;;;;;;17.07;11.07;;;;;;;;;;5053359;28;20465;-70
2022/12/23 13:41:46;;;;;;;21.53;10.10;;;;;;;;;;5096249;28;20487;-70
2022/12/23 13:44:26;;;;;;;20.07;12.70;;;;;;;;;;5095691;28;20561;-70
2022/12/23 13:47:16;;;;;;;19.20;9.20;;;;;;;;;;5075350;28;20606;-70
2022/12/23 13:49:49;;;;;;;19.40;9.60;;;;;;;;;;5084362;28;20755;-70
2022/12/23 13:52:35;;;;;;;18.20;8.77;;;;;;;;;;5084155;28;20449;-71
2022/12/23 13:55:21;;;;;;;15.27;7.87;;;;;;;;;;5068240;28;20533;-71
2022/12/23 13:58:20;;;;;;;17.60;7.80;;;;;;;;;;5068267;28;20469;-71
2022/12/23 14:01:06;;;;;;;16.00;7.80;;;;;;;;;;5062406;28;20533;-71
2022/12/23 14:03:48;;;;;;;15.67;7.00;;;;;;;;;;5061868;28;20469;-71
2022/12/23 14:06:42;;;;;;;16.50;9.27;;;;;;;;;;5067625;28;20560;-71
2022/12/23 14:09:36;;;;;;;17.00;9.00;;;;;;;;;;5076534;28;20484;-71
2022/12/23 14:12:24;;;;;;;20.40;7.80;;;;;;;;;;5051432;28;20461;-72
2022/12/23 14:15:20;;;;;;;15.30;8.00;;;;;;;;;;5055955;28;20534;-71
2022/12/23 14:18:04;;;;;;;17.33;9.20;;;;;;;;;;5019981;28;20644;-71
2022/12/23 14:20:41;;;;;;;19.57;10.90;;;;;;;;;;5055611;28;20468;-70
2022/12/23 14:23:21;;;;;;;17.57;8.20;;;;;;;;;;5055411;28;20537;-70
2022/12/23 14:25:57;;;;;;;22.57;12.03;;;;;;;;;;5070681;28;20446;-71
2022/12/23 14:28:44;;;;;;;14.57;8.67;;;;;;;;;;5055008;28;20515;-69
2022/12/23 14:31:35;;;;;;;19.70;8.40;;;;;;;;;;5057650;28;20461;-70
2022/12/23 14:34:05;;;;;;;20.93;9.50;;;;;;;;;;5049640;28;20458;-70
2022/12/23 14:36:41;;;;;;;17.07;9.33;;;;;;;;;;5055272;28;20799;-70
2022/12/23 14:39:37;;;;;;;15.60;7.63;;;;;;;;;;5057262;28;20461;-71
2022/12/23 14:42:07;;;;;;;13.63;7.93;;;;;;;;;;5052325;28;20461;-71
2022/12/23 14:44:52;;;;;;;18.80;10.70;;;;;;;;;;5054512;28;20457;-70
2022/12/23 14:47:34;;;;;;;16.73;9.60;;;;;;;;;;5054802;28;20861;-71
2022/12/23 14:50:42;;;;;;;12.30;8.13;;;;;;;;;;5053032;28;20896;-72
2022/12/23 14:53:26;;;;;;;13.53;9.17;;;;;;;;;;4970562;28;20495;-70
2022/12/23 14:56:19;;;;;;;12.97;7.53;;;;;;;;;;4972129;28;20457;-70
2022/12/23 14:59:10;;;;;;;17.97;9.80;;;;;;;;;;5039692;28;20773;-70
2022/12/23 15:01:50;;;;;;;21.13;11.37;;;;;;;;;;5063590;28;20452;-70
2022/12/23 15:04:22;;;;;;;24.80;10.20;;;;;;;;;;5056029;28;20445;-70
2022/12/23 15:06:59;;;;;;;18.63;11.70;;;;;;;;;;5053273;28;20537;-70
2022/12/23 15:09:31;;;;;;;17.37;9.57;;;;;;;;;;5053281;28;20485;-70
2022/12/23 15:12:07;;;;;;;16.30;9.47;;;;;;;;;;5066166;28;20512;-70
2022/12/23 15:14:39;;;;;;;17.57;10.33;;;;;;;;;;5072758;28;20447;-70
2022/12/23 15:17:39;;;;;;;38.97;25.73;;;;;;;;;;5059724;28;20461;-70
2022/12/23 15:20:15;;;;;;;25.63;14.20;;;;;;;;;;5057915;28;20893;-70
2022/12/23 15:26:07;;;;;;;24.50;12.47;;;;;;;;;;5053959;28;20436;-70
2022/12/23 15:28:48;;;;;;;26.90;11.43;;;;;;;;;;5053003;28;20939;-70
2022/12/23 15:31:28;;;;;;;19.47;10.30;;;;;;;;;;5061755;28;20484;-70
2022/12/23 15:34:10;;;;;;;24.63;11.50;;;;;;;;;;5055559;28;20473;-75
2022/12/23 15:36:53;;;;;;;17.60;11.03;;;;;;;;;;5057607;28;20835;-71
2022/12/23 15:39:34;;;;;;;13.20;8.63;;;;;;;;;;5060105;28;20467;-69
2022/12/23 15:42:21;;;;;;;19.10;8.97;;;;;;;;;;5064277;28;20449;-70
2022/12/23 15:44:57;;;;;;;18.60;10.67;;;;;;;;;;5069366;28;20667;-71
2022/12/23 15:47:31;;;;;;;18.30;10.57;;;;;;;;;;5053003;28;20581;-70
2022/12/23 15:50:05;;;;;;;18.60;9.27;;;;;;;;;;5054266;28;20490;-71
2022/12/23 15:52:36;;;;;;;17.57;11.20;;;;;;;;;;5054455;28;20461;-71
2022/12/23 15:55:12;;;;;;;18.70;8.93;;;;;;;;;;5057772;28;20461;-70
2022/12/23 15:57:44;;;;;;;17.27;10.17;;;;;;;;;;5053113;28;20464;-71
2022/12/23 16:00:28;;;;;;;18.00;11.40;;;;;;;;;;5054653;28;20449;-71
2022/12/23 16:03:03;;;;;;;17.27;10.93;;;;;;;;;;5053033;28;20535;-71